createdAt,value
2022-08-25T00:02:30.629Z,18.10903
2022-08-25T00:07:31.332Z,17.93713
2022-08-25T00:12:32.027Z,17.7814
2022-08-25T00:17:33.003Z,17.75412
2022-08-25T00:22:33.896Z,17.66278
2022-08-25T00:27:34.659Z,17.61997
2022-08-25T00:32:35.288Z,17.60569
2022-08-25T00:37:36.016Z,17.57905
2022-08-25T00:42:36.975Z,17.55526
2022-08-25T00:47:37.944Z,17.57937
2022-08-25T00:52:38.963Z,17.65105
2022-08-25T00:57:40.099Z,17.68435
2022-08-25T01:02:40.848Z,17.57715
2022-08-25T01:07:41.779Z,17.55875
2022-08-25T01:12:45.649Z,17.47693
2022-08-25T01:17:46.379Z,17.45187
2022-08-25T01:22:48.258Z,17.44236
2022-08-25T01:27:56.439Z,17.44426
2022-08-25T01:32:57.091Z,17.47629
2022-08-25T01:37:58.000Z,17.43221
2022-08-25T01:42:58.963Z,17.41793
2022-08-25T01:47:59.987Z,17.44077
2022-08-25T01:53:00.968Z,17.47344
2022-08-25T01:58:01.945Z,17.47027
2022-08-25T02:03:02.973Z,17.42872
2022-08-25T02:08:06.719Z,17.40557
2022-08-25T02:13:08.348Z,17.39193
2022-08-25T02:18:09.324Z,17.35989
2022-08-25T02:23:10.263Z,17.34975
2022-08-25T02:28:11.299Z,17.3526
2022-08-25T02:33:12.204Z,17.35323
2022-08-25T02:38:13.169Z,17.31295
2022-08-25T02:43:14.121Z,17.31391
2022-08-25T02:48:14.834Z,17.28885
2022-08-25T02:53:15.759Z,17.25333
2022-08-25T02:58:16.709Z,17.286
2022-08-25T03:03:17.262Z,17.30725
2022-08-25T03:08:17.998Z,17.34562
2022-08-25T03:13:18.658Z,17.37575
2022-08-25T03:18:19.610Z,17.37892
2022-08-25T03:23:20.536Z,17.34182
2022-08-25T03:28:21.462Z,17.22383
2022-08-25T03:33:30.571Z,17.1899
2022-08-25T03:38:31.494Z,17.17372
2022-08-25T03:43:32.429Z,17.15089
2022-08-25T03:48:33.362Z,17.19497
2022-08-25T03:53:34.312Z,17.17658
2022-08-25T03:58:35.255Z,17.22225
2022-08-25T04:03:36.177Z,17.28758
2022-08-25T04:08:38.508Z,17.23684
2022-08-25T04:13:39.440Z,17.19941
2022-08-25T04:18:40.371Z,17.15596
2022-08-25T04:23:41.382Z,17.15406
2022-08-25T04:28:42.292Z,17.13503
2022-08-25T04:33:43.302Z,17.09538
2022-08-25T04:38:44.273Z,17.09538
2022-08-25T04:43:45.252Z,17.11473
2022-08-25T04:48:46.200Z,17.1382
2022-08-25T04:53:47.155Z,17.15342
2022-08-25T04:58:47.893Z,17.14232
2022-08-25T05:03:48.901Z,17.10902
2022-08-25T05:08:49.927Z,17.11854
2022-08-25T05:13:51.627Z,17.06177
2022-08-25T05:18:52.761Z,17.05606
2022-08-25T05:23:53.689Z,17.10109
2022-08-25T05:28:54.652Z,17.09285
2022-08-25T05:33:55.691Z,17.12044
2022-08-25T05:38:56.660Z,17.12995
2022-08-25T05:43:57.626Z,17.10141
2022-08-25T05:48:58.578Z,17.08492
2022-08-25T05:53:59.559Z,17.08111
2022-08-25T05:59:00.522Z,17.07667
2022-08-25T06:04:01.515Z,17.05574
2022-08-25T06:09:02.028Z,17.0218
2022-08-25T06:14:02.980Z,17.0069
2022-08-25T06:19:03.949Z,16.99231
2022-08-25T06:24:04.879Z,17.04464
2022-08-25T06:29:05.906Z,17.02688
2022-08-25T06:34:06.835Z,17.0957
2022-08-25T06:39:07.774Z,17.13598
2022-08-25T06:44:11.715Z,17.14359
2022-08-25T06:49:12.666Z,17.13408
2022-08-25T06:54:13.616Z,17.18609
2022-08-25T06:59:14.567Z,17.20163
2022-08-25T07:04:15.512Z,17.18419
2022-08-25T07:09:16.278Z,17.19783
2022-08-25T07:14:17.229Z,17.18704
2022-08-25T07:19:18.188Z,17.18577
2022-08-25T07:24:19.236Z,17.13947
2022-08-25T07:29:20.199Z,17.18355
2022-08-25T07:34:33.431Z,17.16294
2022-08-25T07:39:35.600Z,17.17943
2022-08-25T07:44:36.512Z,17.20258
2022-08-25T07:49:40.012Z,17.19719
2022-08-25T07:54:41.016Z,17.19846
2022-08-25T07:59:42.318Z,17.19021
2022-08-25T08:04:43.266Z,17.16896
2022-08-25T08:09:44.587Z,17.14581
2022-08-25T08:14:46.497Z,17.2232
2022-08-25T08:19:47.439Z,17.21464
2022-08-25T08:24:54.066Z,17.24064
2022-08-25T08:29:55.867Z,17.21686
2022-08-25T08:34:56.804Z,17.18102
2022-08-25T08:39:59.136Z,17.12869
2022-08-25T08:45:02.471Z,17.16452
2022-08-25T08:50:03.814Z,17.16896
2022-08-25T08:55:06.449Z,17.22447
2022-08-25T09:00:07.307Z,17.20956
2022-08-25T09:05:08.286Z,17.23906
2022-08-25T09:10:09.293Z,17.11854
2022-08-25T09:15:12.713Z,17.12869
2022-08-25T09:20:18.219Z,17.07953
2022-08-25T09:25:29.429Z,17.08016
2022-08-25T09:30:41.010Z,17.00436
2022-08-25T09:35:41.965Z,16.89431
2022-08-25T09:40:42.957Z,16.78362
2022-08-25T09:45:43.945Z,16.76015
2022-08-25T09:50:45.694Z,16.69925
2022-08-25T09:55:47.800Z,16.72875
2022-08-25T10:00:48.579Z,16.66754
2022-08-25T10:05:49.519Z,16.68371
2022-08-25T10:10:57.117Z,16.66405
2022-08-25T10:15:58.097Z,16.6317
2022-08-25T10:20:58.713Z,16.65929
2022-08-25T10:26:04.269Z,16.59745
2022-08-25T10:31:05.488Z,16.60569
2022-08-25T10:36:10.751Z,16.48613
2022-08-25T10:41:11.958Z,16.50547
2022-08-25T10:46:13.004Z,16.49215
2022-08-25T10:51:19.510Z,16.46773
2022-08-25T10:56:22.405Z,16.30471
2022-08-25T11:01:28.204Z,16.18102
2022-08-25T11:06:31.451Z,16.20069
2022-08-25T11:11:32.368Z,16.13948
2022-08-25T11:16:35.994Z,16.25302
2022-08-25T11:21:38.265Z,16.21083
2022-08-25T11:26:40.719Z,16.22225
2022-08-25T11:31:41.630Z,16.18261
2022-08-25T11:36:42.716Z,16.08873
2022-08-25T11:41:46.761Z,15.97519
2022-08-25T11:46:47.801Z,16.00595
2022-08-25T11:51:49.486Z,16.01388
2022-08-25T11:56:50.467Z,15.99168
2022-08-25T12:01:51.384Z,15.96758
2022-08-25T12:06:54.039Z,15.88353
2022-08-25T12:11:55.020Z,15.9717
2022-08-25T12:16:56.044Z,15.90986
2022-08-25T12:21:57.389Z,15.90954
2022-08-25T12:26:58.325Z,15.96472
2022-08-25T12:32:04.439Z,15.83501
2022-08-25T12:37:06.430Z,15.76143
2022-08-25T12:42:07.550Z,15.68024
2022-08-25T12:47:08.502Z,15.6241
2022-08-25T12:52:09.463Z,15.69736
2022-08-25T12:57:12.414Z,15.66501
2022-08-25T13:02:13.461Z,15.6482
2022-08-25T13:07:14.577Z,15.60919
2022-08-25T13:12:15.628Z,15.67738
2022-08-25T13:17:16.795Z,15.5724
2022-08-25T13:22:17.766Z,15.63964
2022-08-25T13:27:22.833Z,15.68214
2022-08-25T13:32:24.164Z,15.65772
2022-08-25T13:37:25.061Z,15.56194
2022-08-25T13:42:29.069Z,15.56828
2022-08-25T13:47:30.313Z,15.57621
2022-08-25T13:52:31.233Z,15.58097
2022-08-25T13:57:33.706Z,15.49819
2022-08-25T14:02:34.741Z,15.44491
2022-08-25T14:07:37.618Z,15.34501
2022-08-25T14:12:40.218Z,15.36308
2022-08-25T14:17:41.043Z,15.46457
2022-08-25T14:22:42.775Z,15.54164
2022-08-25T14:28:03.632Z,15.59048
2022-08-25T14:33:08.033Z,15.64313
2022-08-25T14:38:09.892Z,15.54101
2022-08-25T14:43:10.700Z,15.62347
2022-08-25T14:48:12.108Z,15.6425
2022-08-25T14:53:12.879Z,15.64947
2022-08-25T14:58:14.001Z,15.64567
2022-08-25T15:03:14.951Z,15.6777
2022-08-25T15:08:15.910Z,15.63742
2022-08-25T15:13:16.972Z,15.50295
2022-08-25T15:18:17.929Z,15.57558
2022-08-25T15:23:20.932Z,15.48709
2022-08-25T15:28:22.832Z,15.33422
2022-08-25T15:33:23.850Z,15.10778
2022-08-25T15:38:24.831Z,14.94698
2022-08-25T15:43:27.231Z,14.83757
2022-08-25T15:48:27.855Z,14.75796
2022-08-25T15:53:28.789Z,14.73861
2022-08-25T15:58:29.767Z,14.72307
2022-08-25T16:03:31.227Z,14.76526
2022-08-25T16:08:32.175Z,14.70531
2022-08-25T16:13:33.146Z,14.63998
2022-08-25T16:18:34.123Z,14.65742
2022-08-25T16:23:34.751Z,14.74749
2022-08-25T16:28:35.655Z,14.82488
2022-08-25T16:33:36.734Z,14.83439
2022-08-25T16:38:37.713Z,14.94762
2022-08-25T16:43:38.677Z,15.01676
2022-08-25T16:48:39.612Z,15.26223
2022-08-25T16:53:40.557Z,15.33739
2022-08-25T16:58:41.480Z,15.51405
2022-08-25T17:03:46.592Z,15.59239
2022-08-25T17:08:47.547Z,15.68309
2022-08-25T17:13:49.685Z,15.70149
2022-08-25T17:18:51.002Z,15.83406
2022-08-25T17:23:51.921Z,15.86736
2022-08-25T17:28:52.879Z,16.09698
2022-08-25T17:33:55.398Z,16.05321
2022-08-25T17:38:56.962Z,16.02911
2022-08-25T17:43:58.201Z,16.04591
2022-08-25T17:48:59.150Z,16.0494
2022-08-25T17:54:00.344Z,16.00754
2022-08-25T17:59:01.283Z,15.9587
2022-08-25T18:04:02.227Z,15.90764
2022-08-25T18:09:05.359Z,15.95679
2022-08-25T18:14:06.982Z,16.00722
2022-08-25T18:19:11.769Z,15.96028
2022-08-25T18:24:15.377Z,15.91017
2022-08-25T18:29:16.698Z,15.91778
2022-08-25T18:34:18.327Z,15.86863
2022-08-25T18:39:19.882Z,15.77348
2022-08-25T18:44:20.854Z,15.71956
2022-08-25T18:49:21.772Z,15.64852
2022-08-25T18:54:28.103Z,15.60031
2022-08-25T18:59:29.072Z,15.53974
2022-08-25T19:04:31.766Z,15.4522
2022-08-25T19:09:32.888Z,15.37323
2022-08-25T19:14:33.671Z,15.25303
2022-08-25T19:19:35.463Z,15.12998
2022-08-25T19:24:36.230Z,14.94286
2022-08-25T19:29:37.031Z,14.9178
2022-08-25T19:34:37.980Z,14.81632
2022-08-25T19:39:39.415Z,14.7421
2022-08-25T19:44:40.438Z,14.59875
2022-08-25T19:49:42.785Z,14.56735
2022-08-25T19:54:44.141Z,14.39039
2022-08-25T19:59:45.540Z,14.42083
2022-08-25T20:04:49.506Z,14.36787
2022-08-25T20:09:50.823Z,14.2705
2022-08-25T20:14:51.754Z,14.15665
2022-08-25T20:19:52.718Z,14.19534
2022-08-25T20:24:56.183Z,14.18836
2022-08-25T20:29:58.784Z,14.1557
2022-08-25T20:34:59.732Z,14.0596
2022-08-25T20:40:00.673Z,14.18678
2022-08-25T20:45:01.445Z,13.9968
2022-08-25T20:50:06.367Z,13.78083
2022-08-25T20:55:07.713Z,13.50396
2022-08-25T21:00:09.227Z,13.71962
2022-08-25T21:05:10.500Z,13.74626
2022-08-25T21:10:14.470Z,13.71359
2022-08-25T21:15:18.188Z,13.66507
2022-08-25T21:20:19.414Z,13.68378
2022-08-25T21:25:20.421Z,13.57437
2022-08-25T21:30:22.340Z,13.49889
2022-08-25T21:35:24.676Z,13.41801
2022-08-25T21:40:25.563Z,13.22836
2022-08-25T21:45:26.484Z,13.26991
2022-08-25T21:50:34.259Z,13.33175
2022-08-25T21:55:36.483Z,13.30638
2022-08-25T22:00:37.444Z,13.47478
2022-08-25T22:05:38.390Z,13.45893
2022-08-25T22:10:41.468Z,13.4104
2022-08-25T22:15:42.455Z,13.41262
2022-08-25T22:20:43.375Z,13.19252
2022-08-25T22:25:44.815Z,13.18238
2022-08-25T22:30:45.829Z,13.157
2022-08-25T22:35:47.299Z,13.22551
2022-08-25T22:40:47.916Z,13.00858
2022-08-25T22:45:48.907Z,12.83637
2022-08-25T22:50:54.327Z,12.55443
2022-08-25T22:56:01.943Z,12.5557
2022-08-25T23:01:03.203Z,12.53414
2022-08-25T23:06:04.986Z,12.63626
2022-08-25T23:11:05.911Z,12.65719
2022-08-25T23:16:07.214Z,12.54428
2022-08-25T23:21:10.029Z,12.43836
2022-08-25T23:26:10.999Z,12.46436
2022-08-25T23:31:15.142Z,12.59059
2022-08-25T23:36:15.916Z,12.72315
2022-08-25T23:41:17.921Z,12.65497
2022-08-25T23:46:18.880Z,12.6537
2022-08-25T23:51:21.528Z,12.65116
2022-08-25T23:56:22.715Z,12.68763
